Time;durP1;ratioP1;P1;durP2;ratioP2;P2;SDS_P1;SDS_P2;PMS_P1;PMS_P2;Temp;Humidity;BMP_temperature;BMP_pressure;BME280_temperature;BME280_humidity;BME280_pressure;Samples;Min_cycle;Max_cycle;Signal;HPM_P1;HPM_P2
2023/03/18 00:03:23;;;;;;;2.40;2.30;;;12.30;88.10;;;;;;10454404;28;20283;-80
2023/03/18 00:08:25;;;;;;;2.50;2.30;;;12.20;88.50;;;;;;10454155;28;20218;-81
2023/03/18 00:13:29;;;;;;;3.63;2.10;;;12.20;88.30;;;;;;10453053;28;20240;-79
2023/03/18 00:18:33;;;;;;;2.53;2.23;;;12.20;88.00;;;;;;10455231;28;20728;-78
2023/03/18 00:23:35;;;;;;;2.17;1.97;;;12.20;88.10;;;;;;10453489;28;20723;-78
2023/03/18 00:28:39;;;;;;;2.97;2.60;;;12.20;87.90;;;;;;10455387;28;20221;-80
2023/03/18 00:33:44;;;;;;;2.90;2.13;;;12.10;88.40;;;;;;10458417;28;20612;-78
2023/03/18 00:38:50;;;;;;;4.03;2.90;;;12.10;88.80;;;;;;10458116;28;20222;-80
2023/03/18 00:43:54;;;;;;;4.83;2.80;;;12.00;88.70;;;;;;10456809;28;20202;-78
2023/03/18 00:48:59;;;;;;;4.47;3.00;;;12.00;87.80;;;;;;10440459;28;20308;-79
2023/03/18 00:54:05;;;;;;;3.10;2.63;;;12.00;88.40;;;;;;10458595;28;20654;-79
2023/03/18 00:59:09;;;;;;;3.20;2.90;;;12.00;88.40;;;;;;10458331;28;20209;-78
2023/03/18 01:04:11;;;;;;;4.23;2.83;;;12.10;88.60;;;;;;10455637;28;20422;-78
2023/03/18 01:09:15;;;;;;;4.00;2.37;;;12.00;88.80;;;;;;10455245;28;20217;-79
2023/03/18 01:14:19;;;;;;;3.07;2.77;;;11.90;89.00;;;;;;10460278;28;20197;-79
2023/03/18 01:19:22;;;;;;;4.80;4.40;;;11.90;89.40;;;;;;10457571;28;20218;-78
2023/03/18 01:24:25;;;;;;;3.40;3.20;;;11.80;89.70;;;;;;10460022;28;20216;-79
2023/03/18 01:29:29;;;;;;;2.87;2.67;;;11.90;89.10;;;;;;10440778;28;20317;-80
2023/03/18 01:34:37;;;;;;;4.17;2.50;;;11.80;89.10;;;;;;10455664;28;20193;-80
2023/03/18 01:39:40;;;;;;;2.93;2.73;;;11.80;87.90;;;;;;10455025;28;20245;-80
2023/03/18 01:44:50;;;;;;;3.00;2.80;;;11.80;87.60;;;;;;10456374;28;20647;-80
2023/03/18 01:49:53;;;;;;;3.00;2.80;;;12.00;84.60;;;;;;10456422;28;20222;-80
2023/03/18 01:54:59;;;;;;;2.53;2.33;;;12.00;85.50;;;;;;10456667;28;20190;-80
2023/03/18 02:00:04;;;;;;;2.73;2.50;;;12.10;84.30;;;;;;10453383;28;20313;-80
2023/03/18 02:05:17;;;;;;;3.33;2.40;;;12.30;84.40;;;;;;10458820;28;20232;-80
2023/03/18 02:10:23;;;;;;;2.30;2.20;;;12.40;82.70;;;;;;10465756;28;20236;-80
2023/03/18 02:15:29;;;;;;;3.20;2.30;;;12.50;82.80;;;;;;10465542;28;20658;-80
2023/03/18 02:20:48;;;;;;;2.50;2.40;;;12.60;82.60;;;;;;10466257;28;20257;-80
2023/03/18 02:26:03;;;;;;;2.73;2.53;;;12.70;81.60;;;;;;10478475;28;20189;-80
2023/03/18 02:31:11;;;;;;;2.10;2.00;;;12.80;80.10;;;;;;10493852;28;20248;-80
2023/03/18 02:36:19;;;;;;;2.50;2.37;;;12.80;81.50;;;;;;10463589;28;20609;-80
2023/03/18 02:41:24;;;;;;;2.63;2.50;;;12.70;82.90;;;;;;10464387;28;20281;-80
2023/03/18 02:46:35;;;;;;;2.70;2.50;;;12.70;81.30;;;;;;10463873;28;20209;-80
2023/03/18 02:51:38;;;;;;;2.77;2.57;;;12.70;81.80;;;;;;10432760;22;20318;-80
2023/03/18 02:56:42;;;;;;;3.00;2.80;;;12.70;81.90;;;;;;10340482;28;20204;-80
2023/03/18 03:01:50;;;;;;;2.43;2.33;;;12.60;83.20;;;;;;10375449;28;20223;-79
2023/03/18 03:06:53;;;;;;;2.90;2.70;;;12.50;84.60;;;;;;10356161;28;20227;-80
2023/03/18 03:12:09;;;;;;;5.87;2.53;;;12.50;83.60;;;;;;10383382;28;20223;-80
2023/03/18 03:17:17;;;;;;;7.80;6.97;;;12.50;84.10;;;;;;10371876;28;20199;-80
2023/03/18 03:22:19;;;;;;;3.23;3.03;;;12.30;86.10;;;;;;10389138;28;20222;-80
2023/03/18 03:27:23;;;;;;;5.23;2.83;;;12.20;85.30;;;;;;10326343;28;20572;-79
2023/03/18 03:32:27;;;;;;;2.70;2.50;;;12.20;84.80;;;;;;10358544;28;20734;-79
2023/03/18 03:37:29;;;;;;;3.67;2.90;;;12.20;86.60;;;;;;10333668;28;20278;-79
2023/03/18 03:42:31;;;;;;;3.37;3.07;;;12.20;86.40;;;;;;10357574;28;20364;-79
2023/03/18 03:47:35;;;;;;;3.80;2.80;;;12.00;86.60;;;;;;10365794;28;20613;-79
2023/03/18 03:52:39;;;;;;;2.80;2.60;;;11.90;86.70;;;;;;10341266;28;20216;-79
2023/03/18 03:57:42;;;;;;;4.17;3.13;;;11.80;87.40;;;;;;10335783;28;20204;-80
2023/03/18 04:02:46;;;;;;;3.53;2.40;;;11.70;87.50;;;;;;10349022;28;20566;-79
2023/03/18 04:07:49;;;;;;;2.87;2.70;;;11.50;87.20;;;;;;10343870;28;20199;-79
2023/03/18 04:12:53;;;;;;;2.80;2.60;;;11.60;87.40;;;;;;10365857;28;20211;-79
2023/03/18 04:17:56;;;;;;;3.37;2.73;;;11.50;87.40;;;;;;10342203;28;20208;-81
2023/03/18 04:23:01;;;;;;;4.50;2.70;;;11.40;87.30;;;;;;10362637;28;20253;-79
2023/03/18 04:28:03;;;;;;;4.33;2.97;;;11.40;88.00;;;;;;10340765;28;20282;-79
2023/03/18 04:33:08;;;;;;;3.13;2.63;;;11.40;88.00;;;;;;10360744;28;20219;-79
2023/03/18 04:38:11;;;;;;;3.47;2.60;;;11.40;89.10;;;;;;10324872;28;20196;-79
2023/03/18 04:43:14;;;;;;;3.00;2.50;;;11.30;88.20;;;;;;10335200;28;20277;-79
2023/03/18 04:48:18;;;;;;;4.87;2.70;;;11.20;88.70;;;;;;10343556;28;20210;-80
2023/03/18 04:53:21;;;;;;;2.83;2.63;;;11.00;89.20;;;;;;10346656;28;20229;-80
2023/03/18 04:58:23;;;;;;;3.47;2.60;;;10.90;89.40;;;;;;10328887;28;20532;-80
2023/03/18 05:03:42;;;;;;;3.87;3.57;;;10.80;89.50;;;;;;10334307;28;20198;-79
2023/03/18 05:08:45;;;;;;;3.77;2.57;;;10.80;89.40;;;;;;10351621;28;20325;-79
2023/03/18 05:13:50;;;;;;;2.83;2.63;;;10.70;89.80;;;;;;10342147;28;20219;-79
2023/03/18 05:18:56;;;;;;;4.30;3.37;;;10.70;89.60;;;;;;10334462;28;20215;-79
2023/03/18 05:23:58;;;;;;;3.10;2.90;;;10.70;90.10;;;;;;10346188;28;20203;-79
2023/03/18 05:29:02;;;;;;;3.80;3.40;;;10.60;90.10;;;;;;10328169;28;20221;-79
2023/03/18 05:34:16;;;;;;;3.23;2.87;;;10.60;90.00;;;;;;10340391;28;20553;-80
2023/03/18 05:39:20;;;;;;;2.70;2.50;;;10.60;90.00;;;;;;10347585;28;20689;-80
2023/03/18 05:44:22;;;;;;;6.93;4.70;;;10.50;90.40;;;;;;10336165;28;20198;-79
2023/03/18 05:49:27;;;;;;;2.60;2.40;;;10.50;90.20;;;;;;10367345;28;20271;-79
2023/03/18 05:54:50;;;;;;;4.57;2.77;;;10.50;90.20;;;;;;10344109;28;20702;-79
2023/03/18 05:59:58;;;;;;;2.93;2.63;;;10.40;90.30;;;;;;10368556;28;20218;-79
2023/03/18 06:05:04;;;;;;;3.23;2.50;;;10.40;90.10;;;;;;10354286;28;20202;-79
2023/03/18 06:10:09;;;;;;;4.07;2.73;;;10.40;90.30;;;;;;10343860;28;20768;-79
2023/03/18 06:15:13;;;;;;;3.30;3.00;;;10.40;90.70;;;;;;10370961;28;20202;-79
2023/03/18 06:20:18;;;;;;;2.87;2.67;;;10.40;91.00;;;;;;10349859;28;20210;-79
2023/03/18 06:25:22;;;;;;;3.03;2.73;;;10.40;90.80;;;;;;10344452;28;20214;-80
2023/03/18 06:30:24;;;;;;;4.67;3.80;;;10.40;91.00;;;;;;10372712;28;20249;-80
2023/03/18 06:35:28;;;;;;;5.00;3.20;;;10.50;90.90;;;;;;10344436;28;20208;-79
2023/03/18 06:40:31;;;;;;;3.33;3.03;;;10.40;91.10;;;;;;10352898;28;20270;-81
2023/03/18 06:45:35;;;;;;;3.17;2.87;;;10.40;91.20;;;;;;10400873;28;20295;-81
2023/03/18 06:50:42;;;;;;;3.00;2.80;;;10.40;91.30;;;;;;10383832;28;20229;-82
2023/03/18 06:55:59;;;;;;;5.73;2.80;;;10.40;91.60;;;;;;10349696;28;20191;-81
2023/03/18 07:01:11;;;;;;;4.17;3.53;;;10.30;91.70;;;;;;10373567;28;20306;-82
2023/03/18 07:06:18;;;;;;;5.30;4.80;;;10.30;91.80;;;;;;10345067;28;20201;-80
2023/03/18 07:11:20;;;;;;;3.10;2.80;;;10.30;92.00;;;;;;10357517;28;20227;-82
2023/03/18 07:16:24;;;;;;;5.50;2.90;;;10.40;92.10;;;;;;10349832;28;20213;-82
2023/03/18 07:21:28;;;;;;;4.70;4.30;;;10.50;92.00;;;;;;10375496;28;20711;-81
2023/03/18 07:26:30;;;;;;;8.70;5.50;;;10.50;92.30;;;;;;10326845;28;20303;-82
2023/03/18 07:31:32;;;;;;;9.10;5.90;;;10.60;92.90;;;;;;10357619;28;20213;-82
2023/03/18 07:36:37;;;;;;;5.73;5.23;;;10.70;93.60;;;;;;10365655;28;20199;-82
2023/03/18 07:41:39;;;;;;;6.60;4.60;;;10.70;93.80;;;;;;10370611;28;20223;-81
2023/03/18 07:46:41;;;;;;;7.27;6.33;;;10.80;93.20;;;;;;10375493;28;20231;-82
2023/03/18 07:51:44;;;;;;;4.97;4.47;;;10.90;93.50;;;;;;10374813;28;20755;-83
2023/03/18 07:56:47;;;;;;;7.33;5.33;;;11.00;93.80;;;;;;10376437;28;20281;-81
2023/03/18 08:01:49;;;;;;;6.70;6.00;;;11.20;93.80;;;;;;10360151;28;20246;-82
2023/03/18 08:06:54;;;;;;;8.60;7.20;;;11.40;94.20;;;;;;10374230;28;20226;-81
2023/03/18 08:11:56;;;;;;;7.27;6.03;;;11.70;94.10;;;;;;10375318;28;20250;-82
2023/03/18 08:16:58;;;;;;;5.20;4.70;;;12.00;93.80;;;;;;10327758;28;20232;-82
2023/03/18 08:22:02;;;;;;;3.10;2.90;;;12.20;92.70;;;;;;10368174;28;20239;-82
2023/03/18 08:27:04;;;;;;;3.17;2.97;;;12.40;91.80;;;;;;10347403;28;20310;-81
2023/03/18 08:32:07;;;;;;;2.87;2.67;;;12.60;91.00;;;;;;10330345;28;20216;-82
2023/03/18 08:37:10;;;;;;;3.03;2.73;;;12.80;91.00;;;;;;10368279;28;20205;-82
2023/03/18 08:42:13;;;;;;;8.10;3.00;;;13.00;88.00;;;;;;10338548;28;20221;-82
2023/03/18 08:47:15;;;;;;;2.63;2.43;;;13.20;89.00;;;;;;10368424;28;20223;-81
2023/03/18 08:52:19;;;;;;;2.60;2.40;;;13.40;86.90;;;;;;10433140;22;20584;-81
2023/03/18 08:57:21;;;;;;;2.67;2.40;;;13.60;85.70;;;;;;10419042;28;20263;-79
2023/03/18 09:02:23;;;;;;;3.80;3.47;;;13.70;87.90;;;;;;10417798;28;20214;-79
2023/03/18 09:07:27;;;;;;;4.03;2.60;;;13.90;85.70;;;;;;10416875;28;20241;-80
2023/03/18 09:12:29;;;;;;;2.63;2.43;;;14.00;84.10;;;;;;10422134;28;20252;-82
2023/03/18 09:17:31;;;;;;;2.80;2.60;;;14.20;82.10;;;;;;10404866;28;20217;-82
2023/03/18 09:22:35;;;;;;;2.90;2.57;;;14.40;83.00;;;;;;10420733;28;20264;-82
2023/03/18 09:27:37;;;;;;;2.90;2.60;;;14.60;80.00;;;;;;10418046;28;20333;-82
2023/03/18 09:32:39;;;;;;;2.67;2.47;;;14.80;81.70;;;;;;10418370;28;20293;-81
2023/03/18 09:37:43;;;;;;;2.30;2.10;;;15.00;78.50;;;;;;10416341;28;20202;-81
2023/03/18 09:42:55;;;;;;;2.27;2.17;;;15.20;81.70;;;;;;10416455;28;20219;-79
2023/03/18 09:48:08;;;;;;;2.20;2.10;;;15.40;78.30;;;;;;10398533;28;20203;-80
2023/03/18 09:53:20;;;;;;;3.37;3.07;;;15.70;79.50;;;;;;10400474;28;20767;-79
2023/03/18 09:58:28;;;;;;;2.93;2.73;;;15.90;80.10;;;;;;10415009;28;20277;-79
2023/03/18 10:03:37;;;;;;;5.30;3.87;;;16.00;81.40;;;;;;10396982;28;20728;-79
2023/03/18 10:08:46;;;;;;;3.10;2.90;;;16.20;80.90;;;;;;10391689;28;20298;-78
2023/03/18 10:14:14;;;;;;;6.37;3.97;;;16.40;81.90;;;;;;10416639;28;20625;-79
2023/03/18 10:19:16;;;;;;;5.13;4.70;;;16.40;81.40;;;;;;10392369;28;20234;-78
2023/03/18 10:24:48;;;;;;;3.97;3.60;;;16.30;80.90;;;;;;10411970;28;20273;-78
2023/03/18 10:29:56;;;;;;;5.33;4.30;;;16.20;80.90;;;;;;10403781;28;20269;-79
2023/03/18 10:35:08;;;;;;;3.00;2.70;;;16.10;80.70;;;;;;10418082;28;20565;-79
2023/03/18 10:40:17;;;;;;;2.90;2.60;;;16.00;76.90;;;;;;10424338;28;20273;-80
2023/03/18 10:45:24;;;;;;;4.00;2.80;;;16.00;79.90;;;;;;10419258;28;20654;-79
2023/03/18 10:50:32;;;;;;;3.10;2.90;;;16.00;73.60;;;;;;10424000;28;20244;-78
2023/03/18 10:55:42;;;;;;;2.37;2.17;;;16.00;73.80;;;;;;10421387;28;20591;-81
2023/03/18 11:00:45;;;;;;;5.33;2.70;;;16.10;74.00;;;;;;10427208;28;20308;-80
2023/03/18 11:05:49;;;;;;;2.83;2.63;;;16.20;73.60;;;;;;10428207;28;20213;-81
2023/03/18 11:10:52;;;;;;;2.80;2.30;;;16.20;71.30;;;;;;10422647;28;20245;-79
2023/03/18 11:15:57;;;;;;;2.50;2.30;;;16.30;74.60;;;;;;10442566;28;20202;-79
2023/03/18 11:21:03;;;;;;;2.67;2.53;;;16.40;71.40;;;;;;10467740;28;20222;-79
2023/03/18 11:26:08;;;;;;;4.47;2.30;;;16.30;69.30;;;;;;10431784;28;20199;-81
2023/03/18 11:31:17;;;;;;;2.27;2.17;;;16.20;72.60;;;;;;10424594;28;20238;-81
2023/03/18 11:36:23;;;;;;;2.50;2.30;;;16.10;72.30;;;;;;10405277;28;20701;-80
2023/03/18 11:41:28;;;;;;;2.60;2.40;;;15.90;73.30;;;;;;10412065;28;20590;-81
2023/03/18 11:46:34;;;;;;;5.23;2.10;;;15.70;75.00;;;;;;10417459;28;20213;-80
2023/03/18 11:51:43;;;;;;;2.67;2.47;;;15.60;73.70;;;;;;10426464;28;20228;-79
2023/03/18 11:56:50;;;;;;;2.57;2.37;;;15.50;73.80;;;;;;10394748;28;20195;-79
2023/03/18 12:02:06;;;;;;;3.03;2.10;;;15.40;73.20;;;;;;10413617;28;20210;-80
2023/03/18 12:07:29;;;;;;;5.80;1.90;;;15.40;69.80;;;;;;10400668;28;20744;-80
2023/03/18 12:12:48;;;;;;;4.93;2.50;;;15.50;65.60;;;;;;10424285;28;20690;-80
2023/03/18 12:18:01;;;;;;;2.57;2.37;;;15.60;69.70;;;;;;10411400;28;20532;-79
2023/03/18 12:23:10;;;;;;;2.50;2.20;;;15.60;71.20;;;;;;10413538;28;20221;-79
2023/03/18 12:28:24;;;;;;;2.60;2.40;;;15.60;71.10;;;;;;10399212;28;20202;-79
2023/03/18 12:33:46;;;;;;;2.80;2.60;;;15.70;68.50;;;;;;10421436;28;20281;-79
2023/03/18 12:39:15;;;;;;;5.20;2.00;;;15.80;71.00;;;;;;10426768;28;20202;-79
2023/03/18 12:44:28;;;;;;;2.60;2.40;;;15.90;67.70;;;;;;10419450;28;20219;-79
2023/03/18 12:49:34;;;;;;;2.50;1.73;;;15.90;68.80;;;;;;10418888;28;20218;-79
2023/03/18 12:54:43;;;;;;;2.40;2.20;;;16.00;69.60;;;;;;10419458;28;20202;-79
2023/03/18 12:59:55;;;;;;;2.60;2.30;;;16.00;68.30;;;;;;10416440;28;20268;-79
2023/03/18 13:05:02;;;;;;;2.73;2.17;;;16.00;66.40;;;;;;10399105;28;20253;-79
2023/03/18 13:10:18;;;;;;;2.60;2.40;;;16.00;67.00;;;;;;10417060;28;20246;-80
2023/03/18 13:15:30;;;;;;;2.03;1.93;;;16.00;73.30;;;;;;10420309;28;20659;-80
2023/03/18 13:20:35;;;;;;;2.90;2.40;;;15.90;67.90;;;;;;10417661;28;20526;-80
2023/03/18 13:25:44;;;;;;;3.40;2.20;;;15.90;71.50;;;;;;10418720;28;20318;-81
2023/03/18 13:31:00;;;;;;;7.83;3.33;;;15.90;66.60;;;;;;10418675;28;20218;-75
2023/03/18 13:36:37;;;;;;;3.33;2.43;;;16.00;69.80;;;;;;10412987;28;20190;-78
2023/03/18 13:42:09;;;;;;;2.40;2.07;;;16.00;69.20;;;;;;10415447;28;20215;-82
2023/03/18 13:47:16;;;;;;;2.07;1.90;;;16.10;67.10;;;;;;10415741;28;20279;-82
2023/03/18 13:52:26;;;;;;;1.87;1.70;;;16.10;67.10;;;;;;10417483;28;20706;-83
2023/03/18 13:57:35;;;;;;;2.93;2.10;;;16.10;68.90;;;;;;10415926;28;20187;-81
2023/03/18 14:02:46;;;;;;;2.00;1.60;;;16.30;63.60;;;;;;10419893;28;20214;-81
2023/03/18 14:07:49;;;;;;;2.17;1.97;;;16.40;68.60;;;;;;10422014;28;20593;-81
2023/03/18 14:12:51;;;;;;;1.83;1.73;;;16.60;64.20;;;;;;10403694;28;20214;-81
2023/03/18 14:17:57;;;;;;;1.90;1.80;;;16.70;65.10;;;;;;10407808;28;20234;-84
2023/03/18 14:23:29;;;;;;;2.10;1.70;;;16.80;62.80;;;;;;10430030;28;20218;-83
2023/03/18 14:28:44;;;;;;;2.00;1.90;;;16.80;66.10;;;;;;10431603;28;20195;-83
2023/03/18 14:33:59;;;;;;;8.30;3.30;;;16.90;63.60;;;;;;10433424;28;20194;-83
2023/03/18 14:39:03;;;;;;;3.07;2.87;;;16.80;62.10;;;;;;10433868;28;20210;-83
2023/03/18 14:44:19;;;;;;;2.43;2.27;;;16.90;62.40;;;;;;10432946;28;20222;-83
2023/03/18 14:49:34;;;;;;;2.20;2.10;;;17.00;64.60;;;;;;10433082;28;20248;-82
2023/03/18 14:54:42;;;;;;;1.73;1.63;;;17.00;61.20;;;;;;10436164;28;20201;-81
2023/03/18 14:59:44;;;;;;;1.80;1.70;;;17.00;63.70;;;;;;10401379;28;20221;-81
2023/03/18 15:04:53;;;;;;;2.30;2.00;;;17.10;61.70;;;;;;10426190;28;20218;-81
2023/03/18 15:09:55;;;;;;;2.40;2.20;;;17.10;60.00;;;;;;10383930;28;20230;-81
2023/03/18 15:14:58;;;;;;;1.93;1.83;;;17.10;61.00;;;;;;10427694;28;20222;-82
2023/03/18 15:20:01;;;;;;;1.60;1.60;;;17.10;62.10;;;;;;10426538;28;20207;-82
2023/03/18 15:25:07;;;;;;;2.30;2.10;;;17.10;64.30;;;;;;10425877;28;20218;-81
2023/03/18 15:30:25;;;;;;;2.07;1.97;;;17.00;64.20;;;;;;10426799;28;20597;-81
2023/03/18 15:35:30;;;;;;;5.30;2.83;;;16.90;63.80;;;;;;10394921;28;20826;-83
2023/03/18 15:40:35;;;;;;;4.90;2.80;;;16.80;68.40;;;;;;10431968;28;20215;-82
2023/03/18 15:45:40;;;;;;;5.00;2.73;;;16.80;72.60;;;;;;10416244;28;20246;-81
2023/03/18 15:50:54;;;;;;;2.73;2.53;;;16.70;74.50;;;;;;10406940;28;20232;-82
2023/03/18 15:55:57;;;;;;;2.80;2.60;;;16.70;75.10;;;;;;10405567;28;20190;-81
2023/03/18 16:00:59;;;;;;;8.47;4.60;;;16.70;75.90;;;;;;10423805;28;20214;-81
2023/03/18 16:06:03;;;;;;;5.73;3.70;;;16.60;76.70;;;;;;10407227;28;20245;-81
2023/03/18 16:11:07;;;;;;;3.10;2.80;;;16.60;77.00;;;;;;10406463;28;20261;-81
2023/03/18 16:16:17;;;;;;;2.73;2.53;;;16.50;78.00;;;;;;10437325;28;20186;-81
2023/03/18 16:21:20;;;;;;;2.87;2.57;;;16.40;78.00;;;;;;10452362;28;20226;-80
2023/03/18 16:26:22;;;;;;;3.40;3.10;;;16.30;80.10;;;;;;10422343;28;20253;-81
2023/03/18 16:31:25;;;;;;;3.30;3.00;;;16.10;81.10;;;;;;10427732;28;20305;-81
2023/03/18 16:36:33;;;;;;;3.20;3.00;;;16.00;81.70;;;;;;10429793;28;20195;-81
2023/03/18 16:41:36;;;;;;;3.90;2.80;;;16.00;82.10;;;;;;10436714;28;20219;-82
2023/03/18 16:46:40;;;;;;;5.33;3.30;;;15.90;82.10;;;;;;10436881;28;20332;-82
2023/03/18 16:51:43;;;;;;;3.10;2.90;;;15.80;82.40;;;;;;10414542;28;20258;-81
2023/03/18 16:56:50;;;;;;;3.57;3.23;;;15.80;81.70;;;;;;10429380;28;20213;-81
2023/03/18 17:01:53;;;;;;;3.80;3.30;;;15.70;82.20;;;;;;10428175;28;20299;-80
2023/03/18 17:06:57;;;;;;;4.40;3.20;;;15.70;82.60;;;;;;10431931;28;20194;-81
2023/03/18 17:12:02;;;;;;;2.80;2.60;;;15.60;83.70;;;;;;10442008;28;20218;-81
2023/03/18 17:17:08;;;;;;;3.53;3.20;;;15.40;85.50;;;;;;10453187;28;20194;-80
2023/03/18 17:22:21;;;;;;;8.10;3.13;;;15.20;84.50;;;;;;10412185;28;20215;-81
2023/03/18 17:27:24;;;;;;;2.97;2.67;;;15.20;85.50;;;;;;10414211;28;20197;-79
2023/03/18 17:32:27;;;;;;;5.60;2.90;;;15.00;87.40;;;;;;10414818;28;20263;-81
2023/03/18 17:37:30;;;;;;;4.33;3.43;;;14.90;88.20;;;;;;10443158;28;20194;-81
2023/03/18 17:42:34;;;;;;;4.27;3.67;;;14.80;90.00;;;;;;10429020;28;20210;-78
2023/03/18 17:47:36;;;;;;;3.83;3.53;;;14.70;89.20;;;;;;10435701;28;20655;-80
2023/03/18 17:52:42;;;;;;;5.80;4.40;;;14.60;89.70;;;;;;10434159;28;20218;-80
2023/03/18 17:57:44;;;;;;;4.10;3.70;;;14.50;87.40;;;;;;10451353;28;20538;-81
2023/03/18 18:02:48;;;;;;;6.90;5.67;;;14.60;88.20;;;;;;10464418;28;20233;-81
2023/03/18 18:07:53;;;;;;;8.00;5.90;;;14.70;87.30;;;;;;10400552;28;20265;-79
2023/03/18 18:12:55;;;;;;;6.97;5.40;;;14.70;87.50;;;;;;10380995;28;20212;-80
2023/03/18 18:17:58;;;;;;;6.00;5.40;;;14.70;87.70;;;;;;10389297;28;20618;-80
2023/03/18 18:23:02;;;;;;;5.90;4.87;;;14.60;87.80;;;;;;10421225;28;20210;-80
2023/03/18 18:28:10;;;;;;;7.17;6.00;;;14.60;88.00;;;;;;10418567;28;20191;-80
2023/03/18 18:33:13;;;;;;;7.00;5.13;;;14.60;87.80;;;;;;10390796;28;20706;-79
2023/03/18 18:38:16;;;;;;;15.03;6.10;;;14.50;87.90;;;;;;10404775;28;20218;-80
2023/03/18 18:43:18;;;;;;;14.63;10.87;;;14.50;88.00;;;;;;10422954;28;20219;-81
2023/03/18 18:48:24;;;;;;;17.70;11.37;;;14.40;88.40;;;;;;10422550;28;20214;-81
2023/03/18 18:53:29;;;;;;;12.90;10.33;;;14.30;88.50;;;;;;10423343;28;20218;-81
2023/03/18 18:58:32;;;;;;;9.47;8.57;;;14.30;89.40;;;;;;10425344;28;20199;-80
2023/03/18 19:03:34;;;;;;;7.47;5.83;;;14.20;88.40;;;;;;10428228;28;20237;-81
2023/03/18 19:08:39;;;;;;;8.73;7.40;;;14.10;88.50;;;;;;10418231;28;20199;-80
2023/03/18 19:13:42;;;;;;;9.83;7.43;;;14.00;88.20;;;;;;10400171;28;20186;-80
2023/03/18 19:18:44;;;;;;;17.23;12.40;;;14.00;88.30;;;;;;10404691;28;20198;-81
2023/03/18 19:23:48;;;;;;;17.70;10.10;;;13.90;88.60;;;;;;10407351;28;20218;-82
2023/03/18 19:28:53;;;;;;;6.83;6.03;;;13.80;88.30;;;;;;10402635;28;20237;-82
2023/03/18 19:33:55;;;;;;;10.50;7.00;;;13.80;88.20;;;;;;10419982;28;20195;-81
2023/03/18 19:39:00;;;;;;;7.13;6.10;;;13.70;88.60;;;;;;10420485;28;20211;-82
2023/03/18 19:44:13;;;;;;;7.17;6.23;;;13.70;88.70;;;;;;10403837;28;20214;-81
2023/03/18 19:49:19;;;;;;;9.93;7.67;;;13.60;88.80;;;;;;10403304;28;20281;-81
2023/03/18 19:54:28;;;;;;;8.63;7.83;;;13.70;89.00;;;;;;10420383;28;20259;-81
2023/03/18 19:59:31;;;;;;;16.57;11.17;;;13.60;89.00;;;;;;10419714;28;20647;-81
2023/03/18 20:04:33;;;;;;;12.27;10.03;;;13.50;88.90;;;;;;10435347;28;20206;-81
2023/03/18 20:09:38;;;;;;;11.70;9.20;;;13.50;89.00;;;;;;10420550;28;20233;-81
2023/03/18 20:14:40;;;;;;;6.80;5.77;;;13.40;88.90;;;;;;10423676;28;20289;-81
2023/03/18 20:19:42;;;;;;;7.60;6.50;;;13.40;89.30;;;;;;10439014;28;20206;-82
2023/03/18 20:24:46;;;;;;;5.70;5.30;;;13.50;89.50;;;;;;10423403;28;20314;-82
2023/03/18 20:29:49;;;;;;;6.93;5.30;;;13.30;90.10;;;;;;10422790;28;20721;-82
2023/03/18 20:34:51;;;;;;;7.57;5.70;;;13.20;90.10;;;;;;10403965;28;20203;-82
2023/03/18 20:39:55;;;;;;;7.20;5.40;;;13.30;90.10;;;;;;10387210;28;20679;-82
2023/03/18 20:44:57;;;;;;;6.93;5.20;;;13.30;89.80;;;;;;10416628;28;20618;-81
2023/03/18 20:49:59;;;;;;;5.20;4.50;;;13.30;89.70;;;;;;10428942;22;20696;-80
2023/03/18 20:55:03;;;;;;;5.77;4.40;;;13.30;89.50;;;;;;10416086;28;20194;-79
2023/03/18 21:00:07;;;;;;;4.37;3.97;;;13.20;90.00;;;;;;10400352;28;20709;-81
2023/03/18 21:05:10;;;;;;;8.20;5.00;;;13.10;90.00;;;;;;10421866;28;20219;-81
2023/03/18 21:10:18;;;;;;;5.80;4.37;;;13.10;90.40;;;;;;10417380;28;20310;-81
2023/03/18 21:15:22;;;;;;;7.17;3.90;;;13.20;90.20;;;;;;10422386;28;20194;-81
2023/03/18 21:20:27;;;;;;;10.60;4.27;;;13.20;90.40;;;;;;10423250;28;20215;-81
2023/03/18 21:25:31;;;;;;;4.43;3.73;;;13.10;90.60;;;;;;10419411;28;20592;-80
2023/03/18 21:30:33;;;;;;;6.87;4.23;;;13.20;90.40;;;;;;10417113;28;20773;-80
2023/03/18 21:35:35;;;;;;;5.43;4.53;;;13.10;90.70;;;;;;10398371;28;20191;-79
2023/03/18 21:40:39;;;;;;;5.10;4.10;;;13.00;90.70;;;;;;10416150;28;20245;-80
2023/03/18 21:45:41;;;;;;;7.90;4.10;;;13.00;90.50;;;;;;10414237;28;20211;-82
2023/03/18 21:50:43;;;;;;;6.00;3.70;;;13.00;90.40;;;;;;10403079;28;20316;-81
2023/03/18 21:55:47;;;;;;;4.17;3.87;;;13.00;90.20;;;;;;10402809;28;20192;-80
2023/03/18 22:00:51;;;;;;;3.80;3.13;;;12.80;90.40;;;;;;10415422;28;20214;-79
2023/03/18 22:05:54;;;;;;;4.40;3.83;;;12.80;90.60;;;;;;10417650;28;20226;-82
2023/03/18 22:10:58;;;;;;;5.47;4.07;;;12.80;90.90;;;;;;10421676;28;20242;-81
2023/03/18 22:16:00;;;;;;;3.90;3.60;;;12.70;90.60;;;;;;10421849;28;20199;-82
2023/03/18 22:21:02;;;;;;;6.87;4.60;;;12.70;90.60;;;;;;10399846;28;20686;-81
2023/03/18 22:26:05;;;;;;;6.60;5.13;;;12.70;90.30;;;;;;10402095;28;20652;-81
2023/03/18 22:31:16;;;;;;;5.83;4.40;;;12.60;90.30;;;;;;10403628;28;20309;-81
2023/03/18 22:36:21;;;;;;;6.00;3.70;;;12.50;90.50;;;;;;10418081;28;20191;-80
2023/03/18 22:41:29;;;;;;;4.87;3.40;;;12.40;90.30;;;;;;10422850;28;20224;-82
2023/03/18 22:46:31;;;;;;;4.43;3.93;;;12.40;90.70;;;;;;10440297;28;20224;-82
2023/03/18 22:51:38;;;;;;;4.47;3.80;;;12.30;90.40;;;;;;10421709;28;20233;-80
2023/03/18 22:56:41;;;;;;;4.60;3.53;;;12.40;90.60;;;;;;10427328;28;20289;-81
2023/03/18 23:01:43;;;;;;;4.40;3.20;;;12.30;90.40;;;;;;10419967;28;20305;-80
2023/03/18 23:06:45;;;;;;;6.43;4.03;;;12.30;90.50;;;;;;10422832;28;20257;-82
2023/03/18 23:11:49;;;;;;;5.80;3.73;;;12.40;90.50;;;;;;10425422;28;20218;-82
2023/03/18 23:16:51;;;;;;;3.27;2.97;;;12.30;90.40;;;;;;10406399;28;20217;-81
2023/03/18 23:21:53;;;;;;;4.13;2.80;;;12.30;91.00;;;;;;10406370;28;20214;-82
2023/03/18 23:26:56;;;;;;;3.80;2.70;;;12.30;90.80;;;;;;10422757;28;20269;-81
2023/03/18 23:31:58;;;;;;;3.90;3.23;;;12.30;91.20;;;;;;10422004;28;20215;-82
2023/03/18 23:37:01;;;;;;;3.77;3.20;;;12.30;91.30;;;;;;10423365;28;20374;-81
2023/03/18 23:42:05;;;;;;;2.97;2.77;;;12.30;91.30;;;;;;10427274;28;20211;-81
2023/03/18 23:47:08;;;;;;;3.47;3.10;;;12.20;91.30;;;;;;10422645;28;20713;-81
2023/03/18 23:52:12;;;;;;;3.70;3.07;;;12.20;91.30;;;;;;10417273;28;20249;-80
2023/03/18 23:57:15;;;;;;;17.43;4.00;;;12.30;91.20;;;;;;10416545;28;20222;-81
